Time;durP1;ratioP1;P1;durP2;ratioP2;P2;SDS_P1;SDS_P2;PMS_P1;PMS_P2;Temp;Humidity;BMP_temperature;BMP_pressure;BME280_temperature;BME280_humidity;BME280_pressure;Samples;Min_cycle;Max_cycle;Signal;HPM_P1;HPM_P2
2022/03/24 00:02:25;;;;;;;9.33;6.00;;;6.60;99.90;;;;;;5054881;28;20184;-75
2022/03/24 00:04:51;;;;;;;7.53;4.63;;;6.70;99.90;;;;;;5070464;28;20230;-77
2022/03/24 00:07:16;;;;;;;4.40;4.07;;;6.70;99.90;;;;;;5060074;28;20180;-76
2022/03/24 00:09:43;;;;;;;16.37;3.20;;;6.40;99.90;;;;;;5055214;28;20211;-76
2022/03/24 00:12:10;;;;;;;5.30;4.83;;;6.20;99.90;;;;;;5062394;28;20203;-76
2022/03/24 00:14:35;;;;;;;12.30;5.40;;;6.20;99.90;;;;;;5050149;28;20655;-75
2022/03/24 00:17:01;;;;;;;6.80;5.27;;;6.20;99.90;;;;;;5055895;28;20176;-76
2022/03/24 00:19:27;;;;;;;13.00;6.43;;;6.10;99.90;;;;;;5073072;28;20267;-76
2022/03/24 00:21:53;;;;;;;7.67;5.87;;;6.10;99.90;;;;;;5071322;28;20184;-77
2022/03/24 00:24:19;;;;;;;5.97;4.30;;;6.20;99.90;;;;;;5072819;28;20176;-76
2022/03/24 00:26:45;;;;;;;6.10;4.13;;;6.40;99.90;;;;;;5072698;28;20169;-76
2022/03/24 00:29:10;;;;;;;7.30;3.30;;;6.40;99.90;;;;;;5072711;28;20735;-76
2022/03/24 00:31:36;;;;;;;3.77;3.23;;;6.40;99.90;;;;;;5054650;28;20204;-75
2022/03/24 00:34:02;;;;;;;10.00;3.47;;;6.40;99.90;;;;;;5057748;28;20185;-76
2022/03/24 00:36:27;;;;;;;2.83;2.63;;;6.40;99.90;;;;;;5060682;28;20175;-76
2022/03/24 00:38:55;;;;;;;5.30;2.80;;;6.40;99.90;;;;;;5072301;28;20208;-74
2022/03/24 00:41:21;;;;;;;5.77;3.97;;;6.50;99.90;;;;;;5054296;28;20710;-75
2022/03/24 00:43:48;;;;;;;3.87;3.60;;;6.40;99.90;;;;;;5072281;28;20267;-74
2022/03/24 00:46:15;;;;;;;5.00;3.23;;;6.30;99.90;;;;;;5072522;28;20169;-74
2022/03/24 00:48:41;;;;;;;5.67;5.13;;;6.30;99.90;;;;;;5054243;28;20180;-74
2022/03/24 00:51:06;;;;;;;7.27;4.73;;;6.30;99.90;;;;;;5054218;28;20196;-76
2022/03/24 00:53:32;;;;;;;8.30;2.47;;;6.30;99.90;;;;;;5071970;28;20187;-75
2022/03/24 00:55:59;;;;;;;9.40;6.27;;;6.10;99.90;;;;;;5072315;28;20177;-77
2022/03/24 00:58:25;;;;;;;4.30;4.00;;;6.10;99.90;;;;;;5072407;28;20557;-76
2022/03/24 01:00:50;;;;;;;13.97;5.13;;;6.00;99.90;;;;;;5072258;28;20306;-77
2022/03/24 01:03:16;;;;;;;4.13;3.60;;;6.00;99.90;;;;;;5071798;28;20177;-77
2022/03/24 01:05:42;;;;;;;3.90;3.60;;;5.90;99.90;;;;;;5062054;28;20180;-77
2022/03/24 01:08:08;;;;;;;5.47;3.20;;;5.80;99.90;;;;;;5066909;28;20173;-76
2022/03/24 01:10:35;;;;;;;4.47;3.80;;;5.80;99.90;;;;;;5071194;28;20208;-76
2022/03/24 01:13:01;;;;;;;2.77;2.63;;;5.70;99.90;;;;;;5055971;28;20652;-77
2022/03/24 01:15:28;;;;;;;7.07;5.10;;;5.60;99.90;;;;;;5072030;28;20179;-77
2022/03/24 01:17:53;;;;;;;4.47;3.33;;;5.60;99.90;;;;;;5071917;28;20173;-76
2022/03/24 01:20:19;;;;;;;3.60;3.40;;;5.50;99.90;;;;;;5071939;28;20195;-76
2022/03/24 01:22:45;;;;;;;5.67;3.80;;;5.50;99.90;;;;;;5071321;28;20225;-77
2022/03/24 01:25:12;;;;;;;7.23;2.83;;;5.50;99.90;;;;;;5071455;28;20172;-75
2022/03/24 01:27:38;;;;;;;8.23;3.20;;;5.50;99.90;;;;;;5053695;28;20237;-76
2022/03/24 01:30:09;;;;;;;4.27;2.63;;;5.50;99.90;;;;;;5071645;28;20630;-76
2022/03/24 01:32:35;;;;;;;5.23;3.83;;;5.50;99.90;;;;;;5071389;28;20184;-76
2022/03/24 01:35:01;;;;;;;3.73;3.53;;;5.40;99.90;;;;;;5053641;28;20176;-76
2022/03/24 01:37:27;;;;;;;6.13;3.33;;;5.40;99.90;;;;;;5053548;28;20682;-76
2022/03/24 01:39:53;;;;;;;5.27;3.53;;;5.40;99.90;;;;;;5071165;28;20247;-76
2022/03/24 01:42:19;;;;;;;3.93;3.63;;;5.30;99.90;;;;;;5071135;28;20180;-78
2022/03/24 01:44:46;;;;;;;7.07;4.47;;;5.20;99.90;;;;;;5053468;28;20206;-77
2022/03/24 01:47:13;;;;;;;4.27;3.80;;;5.00;99.90;;;;;;5071537;28;20186;-77
2022/03/24 01:49:40;;;;;;;7.30;5.00;;;4.90;99.90;;;;;;5071310;28;20204;-77
2022/03/24 01:52:12;;;;;;;4.37;4.07;;;4.90;99.90;;;;;;5070929;28;20205;-77
2022/03/24 01:54:40;;;;;;;10.57;7.17;;;4.80;99.90;;;;;;5071253;28;20182;-77
2022/03/24 01:57:08;;;;;;;4.07;3.50;;;4.90;99.90;;;;;;5071370;28;20230;-77
2022/03/24 01:59:37;;;;;;;7.00;6.33;;;4.90;99.90;;;;;;5053187;28;20286;-76
2022/03/24 02:02:03;;;;;;;5.37;4.87;;;4.90;99.90;;;;;;5070992;28;20189;-75
2022/03/24 02:04:30;;;;;;;6.37;4.40;;;4.80;99.90;;;;;;5053154;28;20274;-76
2022/03/24 02:06:56;;;;;;;1.03;1.03;;;4.80;99.90;;;;;;5054951;28;20180;-76
2022/03/24 02:09:22;;;;;;;2.23;2.13;;;4.90;99.90;;;;;;5053138;28;20922;-75
2022/03/24 02:11:48;;;;;;;5.07;4.67;;;4.80;99.90;;;;;;5063070;28;20213;-76
2022/03/24 02:14:14;;;;;;;3.33;3.13;;;4.60;99.90;;;;;;5063073;28;20180;-75
2022/03/24 02:16:41;;;;;;;7.30;2.40;;;4.40;99.90;;;;;;5071025;28;20251;-75
2022/03/24 02:19:14;;;;;;;5.60;4.27;;;4.30;99.90;;;;;;5053146;28;20634;-75
2022/03/24 02:21:40;;;;;;;2.73;1.70;;;4.10;99.90;;;;;;5072450;28;20192;-75
2022/03/24 02:24:07;;;;;;;3.17;2.97;;;4.10;99.90;;;;;;5057201;28;20176;-75
2022/03/24 02:26:35;;;;;;;4.23;3.93;;;4.00;99.90;;;;;;5074805;28;20172;-75
2022/03/24 02:29:01;;;;;;;9.00;3.67;;;4.00;99.90;;;;;;5075061;28;20663;-75
2022/03/24 02:31:29;;;;;;;6.80;2.60;;;4.00;99.90;;;;;;5074344;28;20224;-75
2022/03/24 02:34:37;;;;;;;3.47;3.23;;;4.00;99.90;;;;;;5074800;28;20184;-75
2022/03/24 02:36:40;;;;;;;3.73;3.37;;;4.00;99.90;;;;;;5074655;28;20539;-76
2022/03/24 02:41:33;;;;;;;3.30;2.80;;;4.10;99.90;;;;;;5097748;22;20227;-73
2022/03/24 02:43:59;;;;;;;6.00;4.73;;;4.20;99.90;;;;;;5095227;28;20186;-73
2022/03/24 02:46:26;;;;;;;2.07;1.87;;;4.20;99.90;;;;;;5095109;28;20258;-73
2022/03/24 02:48:51;;;;;;;1.93;1.77;;;4.20;99.90;;;;;;5092382;28;20226;-74
2022/03/24 02:51:17;;;;;;;3.50;3.20;;;4.10;99.90;;;;;;5065554;28;20301;-73
2022/03/24 02:53:42;;;;;;;3.27;3.00;;;4.00;99.90;;;;;;5074638;28;20204;-75
2022/03/24 02:56:08;;;;;;;4.47;3.83;;;3.90;99.90;;;;;;5074574;28;20231;-75
2022/03/24 02:58:33;;;;;;;5.77;3.17;;;3.80;99.90;;;;;;5074118;28;20208;-75
2022/03/24 03:00:59;;;;;;;7.70;2.70;;;3.80;99.90;;;;;;5074512;28;20207;-76
2022/03/24 03:03:24;;;;;;;4.50;4.00;;;3.70;99.90;;;;;;5074134;28;20169;-74
2022/03/24 03:05:50;;;;;;;4.87;4.47;;;3.70;99.90;;;;;;5063187;28;20169;-74
2022/03/24 03:08:19;;;;;;;4.27;3.87;;;3.70;99.90;;;;;;5070554;28;20211;-75
2022/03/24 03:10:44;;;;;;;3.57;3.27;;;3.70;99.90;;;;;;5073516;28;20758;-75
2022/03/24 03:13:10;;;;;;;5.70;3.03;;;3.70;99.90;;;;;;5057692;28;20259;-75
2022/03/24 03:15:36;;;;;;;4.50;3.13;;;3.70;99.90;;;;;;5074221;28;20168;-75
2022/03/24 03:18:04;;;;;;;6.53;4.53;;;3.70;99.90;;;;;;5071334;28;20185;-76
2022/03/24 03:20:30;;;;;;;4.20;3.33;;;3.70;99.90;;;;;;5063772;28;20200;-75
2022/03/24 03:22:56;;;;;;;8.77;7.10;;;3.70;99.90;;;;;;5073561;28;20184;-75
2022/03/24 03:25:22;;;;;;;2.33;2.23;;;3.60;99.90;;;;;;5074033;28;20184;-76
2022/03/24 03:27:48;;;;;;;1.83;1.73;;;3.40;99.90;;;;;;5073734;28;20181;-77
2022/03/24 03:30:14;;;;;;;2.10;2.00;;;3.20;99.90;;;;;;5073981;28;20204;-76
2022/03/24 03:32:41;;;;;;;3.50;2.43;;;3.20;99.90;;;;;;5073090;28;20164;-76
2022/03/24 03:35:07;;;;;;;7.00;5.63;;;3.20;99.90;;;;;;5073950;28;20179;-76
2022/03/24 03:37:33;;;;;;;6.50;5.87;;;3.00;99.90;;;;;;5070725;28;20180;-77
2022/03/24 03:39:59;;;;;;;2.53;2.37;;;3.00;99.90;;;;;;5063613;28;20208;-76
2022/03/24 03:42:24;;;;;;;3.03;2.87;;;3.00;99.90;;;;;;5069133;28;20187;-77
2022/03/24 03:44:50;;;;;;;3.73;2.50;;;3.10;99.90;;;;;;5053915;28;20206;-76
2022/03/24 03:47:16;;;;;;;4.70;1.40;;;3.10;99.90;;;;;;5053833;28;20230;-77
2022/03/24 03:49:41;;;;;;;5.83;4.23;;;3.10;99.90;;;;;;5053940;28;20702;-75
2022/03/24 03:52:07;;;;;;;4.90;4.60;;;3.00;99.90;;;;;;5066619;28;20212;-75
2022/03/24 03:54:32;;;;;;;3.63;3.33;;;2.90;99.90;;;;;;5063512;28;20180;-75
2022/03/24 03:56:58;;;;;;;3.30;3.00;;;2.90;99.90;;;;;;5056896;28;20185;-76
2022/03/24 03:59:23;;;;;;;2.33;2.23;;;2.80;99.90;;;;;;5063457;28;20176;-75
2022/03/24 04:01:49;;;;;;;3.60;2.27;;;2.80;99.90;;;;;;5073412;28;20188;-75
2022/03/24 04:04:15;;;;;;;5.33;4.43;;;2.80;99.90;;;;;;5063912;28;20173;-74
2022/03/24 04:06:41;;;;;;;2.27;2.17;;;2.80;99.90;;;;;;5056902;28;20173;-75
2022/03/24 04:09:07;;;;;;;5.00;2.33;;;2.90;99.90;;;;;;5063677;28;20219;-75
2022/03/24 04:11:35;;;;;;;2.47;2.27;;;3.00;99.90;;;;;;5069953;28;20216;-74
2022/03/24 04:14:00;;;;;;;1.67;1.57;;;3.00;99.90;;;;;;5064123;28;20212;-76
2022/03/24 04:16:26;;;;;;;3.87;1.80;;;3.00;99.90;;;;;;5070097;28;20204;-75
2022/03/24 04:18:51;;;;;;;4.73;4.43;;;3.10;99.90;;;;;;5073053;28;20655;-75
2022/03/24 04:21:18;;;;;;;5.90;4.00;;;3.10;99.90;;;;;;5058161;28;20765;-74
2022/03/24 04:23:44;;;;;;;4.20;3.43;;;3.10;99.90;;;;;;5062836;28;20175;-75
2022/03/24 04:26:12;;;;;;;4.03;3.30;;;3.10;99.90;;;;;;5056134;28;20180;-75
2022/03/24 04:28:39;;;;;;;6.43;2.63;;;3.10;99.90;;;;;;5073034;28;20234;-75
2022/03/24 04:31:05;;;;;;;3.60;3.30;;;3.10;99.90;;;;;;5068549;28;20205;-75
2022/03/24 04:33:31;;;;;;;1.90;1.80;;;3.10;99.90;;;;;;5052543;28;20176;-74
2022/03/24 04:35:58;;;;;;;44.03;4.43;;;3.10;99.90;;;;;;5066268;28;20211;-75
2022/03/24 04:38:23;;;;;;;2.10;1.80;;;3.10;99.90;;;;;;5063367;28;20164;-75
2022/03/24 04:40:49;;;;;;;6.87;3.60;;;3.10;99.90;;;;;;5055313;28;20216;-76
2022/03/24 04:43:15;;;;;;;8.20;4.23;;;3.10;99.90;;;;;;5060916;28;20662;-75
2022/03/24 04:45:41;;;;;;;2.53;2.43;;;2.90;99.90;;;;;;5068946;28;20539;-76
2022/03/24 04:48:06;;;;;;;6.23;4.73;;;2.70;99.90;;;;;;5052705;28;20550;-74
2022/03/24 04:50:32;;;;;;;6.83;6.30;;;2.60;99.90;;;;;;5052282;28;20553;-76
2022/03/24 04:52:58;;;;;;;3.70;3.33;;;2.60;99.90;;;;;;5052235;28;20252;-75
2022/03/24 04:55:23;;;;;;;4.90;3.73;;;2.50;99.90;;;;;;5052544;28;20203;-75
2022/03/24 04:57:49;;;;;;;5.17;4.73;;;2.50;99.90;;;;;;5051669;28;20196;-76
2022/03/24 05:00:17;;;;;;;10.70;4.23;;;2.50;99.90;;;;;;5051761;28;20196;-75
2022/03/24 05:02:44;;;;;;;2.60;2.50;;;2.60;99.90;;;;;;5053080;28;20635;-75
2022/03/24 05:05:10;;;;;;;1.43;1.43;;;2.70;99.90;;;;;;5053079;28;20177;-76
2022/03/24 05:07:36;;;;;;;2.93;2.80;;;2.70;99.90;;;;;;5063295;28;20563;-75
2022/03/24 05:10:03;;;;;;;11.33;3.40;;;2.70;99.90;;;;;;5066953;28;20224;-75
2022/03/24 05:12:28;;;;;;;3.57;3.33;;;2.60;99.90;;;;;;5062708;28;20196;-75
2022/03/24 05:14:54;;;;;;;9.40;2.57;;;2.60;99.90;;;;;;5070698;28;20249;-74
2022/03/24 05:17:19;;;;;;;4.20;4.00;;;2.70;99.90;;;;;;5070400;28;20172;-74
2022/03/24 05:19:47;;;;;;;0.77;0.77;;;2.70;99.90;;;;;;5067926;28;20196;-75
2022/03/24 05:22:13;;;;;;;9.07;3.17;;;2.70;99.90;;;;;;5050194;28;20192;-74
2022/03/24 05:24:41;;;;;;;3.13;2.40;;;2.80;99.90;;;;;;5069448;28;20180;-75
2022/03/24 05:27:07;;;;;;;7.70;2.97;;;2.70;99.90;;;;;;5071841;28;20188;-74
2022/03/24 05:29:33;;;;;;;7.90;2.00;;;2.60;99.90;;;;;;5074077;28;20200;-75
2022/03/24 05:31:59;;;;;;;4.37;4.10;;;2.50;99.90;;;;;;5074560;28;20250;-75
2022/03/24 05:34:25;;;;;;;4.17;2.77;;;2.40;99.90;;;;;;5070822;28;20647;-74
2022/03/24 05:36:51;;;;;;;3.37;3.07;;;2.40;99.90;;;;;;5062838;28;20226;-74
2022/03/24 05:39:17;;;;;;;5.53;4.07;;;2.40;99.90;;;;;;5056151;28;20187;-73
2022/03/24 05:41:43;;;;;;;3.63;3.17;;;2.40;99.90;;;;;;5071253;28;20180;-74
2022/03/24 05:44:08;;;;;;;5.50;1.77;;;2.30;99.90;;;;;;5072486;28;20230;-73
2022/03/24 05:46:41;;;;;;;13.83;2.27;;;2.30;99.90;;;;;;5062782;28;20189;-73
2022/03/24 05:49:08;;;;;;;6.87;3.90;;;2.30;99.90;;;;;;5068328;28;20180;-75
2022/03/24 05:51:34;;;;;;;1.83;1.77;;;2.30;99.90;;;;;;5071132;28;20575;-74
2022/03/24 05:53:59;;;;;;;11.00;3.40;;;2.30;99.90;;;;;;5053558;28;20195;-73
2022/03/24 05:56:25;;;;;;;10.23;5.07;;;2.40;99.90;;;;;;5063698;28;20226;-73
2022/03/24 05:58:51;;;;;;;6.50;3.60;;;2.40;99.90;;;;;;5051867;28;20271;-74
2022/03/24 06:01:17;;;;;;;7.43;6.73;;;2.40;99.90;;;;;;5062202;28;20256;-72
2022/03/24 06:03:45;;;;;;;3.93;3.63;;;2.50;99.90;;;;;;5069715;28;20651;-74
2022/03/24 06:06:12;;;;;;;5.43;5.03;;;2.40;99.90;;;;;;5057404;28;20185;-75
2022/03/24 06:08:42;;;;;;;5.80;5.37;;;2.40;99.90;;;;;;5071877;28;20183;-73
2022/03/24 06:11:14;;;;;;;2.80;2.60;;;2.40;99.90;;;;;;5060293;28;20967;-73
2022/03/24 06:13:40;;;;;;;5.40;3.57;;;2.30;99.90;;;;;;5048088;28;20245;-74
2022/03/24 06:16:07;;;;;;;5.20;3.60;;;2.30;99.90;;;;;;5057642;28;20250;-76
2022/03/24 06:18:33;;;;;;;2.27;2.03;;;2.30;99.90;;;;;;5071412;28;20264;-76
2022/03/24 06:21:02;;;;;;;0.97;0.67;;;2.40;99.90;;;;;;5071241;28;20204;-76
2022/03/24 06:23:28;;;;;;;3.23;3.13;;;2.50;99.90;;;;;;5064683;28;20181;-75
2022/03/24 06:25:54;;;;;;;6.60;5.47;;;2.70;99.90;;;;;;5054680;28;20181;-75
2022/03/24 06:28:19;;;;;;;13.53;4.87;;;2.80;99.90;;;;;;5069859;28;20183;-75
2022/03/24 06:30:45;;;;;;;9.23;5.07;;;2.90;99.90;;;;;;5055630;28;20197;-75
2022/03/24 06:33:11;;;;;;;24.30;4.83;;;3.10;99.90;;;;;;5052600;28;20181;-76
2022/03/24 06:35:37;;;;;;;4.70;4.37;;;3.30;99.90;;;;;;5052577;28;20181;-76
2022/03/24 06:38:03;;;;;;;8.90;3.77;;;3.40;99.90;;;;;;5070022;28;20234;-75
2022/03/24 06:40:28;;;;;;;3.53;2.53;;;3.60;99.90;;;;;;5055997;28;20244;-76
2022/03/24 06:42:54;;;;;;;8.60;3.30;;;3.70;99.90;;;;;;5070609;28;20631;-75
2022/03/24 06:45:20;;;;;;;5.67;5.27;;;3.80;99.90;;;;;;5070945;28;20194;-76
2022/03/24 06:47:46;;;;;;;4.93;4.57;;;3.90;99.90;;;;;;5070858;28;20544;-75
2022/03/24 06:50:13;;;;;;;3.90;3.60;;;4.00;99.90;;;;;;5057559;28;20197;-75
2022/03/24 06:52:40;;;;;;;5.30;3.30;;;4.20;99.90;;;;;;5057530;28;20208;-76
2022/03/24 06:55:06;;;;;;;2.83;2.73;;;4.20;99.90;;;;;;5071046;28;20536;-76
2022/03/24 06:57:31;;;;;;;4.70;4.43;;;4.40;99.90;;;;;;5070738;28;20728;-75
2022/03/24 06:59:57;;;;;;;10.67;6.07;;;4.50;99.90;;;;;;5070742;28;20196;-76
2022/03/24 07:02:23;;;;;;;4.47;4.17;;;4.60;99.90;;;;;;5069096;28;20187;-75
2022/03/24 07:04:49;;;;;;;1.87;1.77;;;4.90;99.90;;;;;;5068037;28;20176;-75
2022/03/24 07:07:15;;;;;;;8.97;5.03;;;5.00;99.90;;;;;;5059250;28;20250;-75
2022/03/24 07:09:40;;;;;;;5.77;2.83;;;5.10;99.90;;;;;;5058434;28;20197;-74
2022/03/24 07:12:06;;;;;;;11.10;5.60;;;5.30;99.90;;;;;;5053961;28;20196;-76
2022/03/24 07:14:32;;;;;;;7.73;7.13;;;5.50;99.90;;;;;;5068500;28;20321;-74
2022/03/24 07:16:58;;;;;;;6.77;5.63;;;5.80;99.90;;;;;;5074267;28;20173;-76
2022/03/24 07:19:23;;;;;;;5.80;4.77;;;5.90;99.90;;;;;;5073953;28;20558;-75
2022/03/24 07:21:49;;;;;;;3.80;3.60;;;6.10;99.90;;;;;;5074077;28;20188;-75
2022/03/24 07:24:15;;;;;;;7.83;7.10;;;6.20;99.90;;;;;;5074100;28;20184;-75
2022/03/24 07:26:40;;;;;;;8.70;4.60;;;6.40;99.90;;;;;;5074032;28;20225;-74
2022/03/24 07:29:06;;;;;;;4.80;4.47;;;6.50;99.90;;;;;;5073872;28;20237;-76
2022/03/24 07:31:32;;;;;;;2.73;2.53;;;6.60;99.90;;;;;;5085579;28;20208;-75
2022/03/24 07:33:59;;;;;;;4.30;3.53;;;6.80;99.90;;;;;;5067686;28;20235;-76
2022/03/24 07:36:25;;;;;;;21.17;7.10;;;6.90;99.90;;;;;;5073972;28;20177;-75
2022/03/24 07:38:56;;;;;;;5.63;4.73;;;7.10;99.90;;;;;;5073869;28;20271;-75
2022/03/24 07:41:22;;;;;;;3.30;3.10;;;7.20;99.90;;;;;;5073424;28;20223;-75
2022/03/24 07:43:49;;;;;;;4.83;3.97;;;7.40;99.90;;;;;;5073575;28;20647;-75
2022/03/24 07:46:14;;;;;;;8.27;7.50;;;7.60;99.90;;;;;;5073526;28;20195;-74
2022/03/24 07:48:40;;;;;;;18.30;7.23;;;7.70;99.90;;;;;;5059488;28;20619;-75
2022/03/24 07:51:07;;;;;;;7.17;6.53;;;7.90;99.90;;;;;;5059364;28;20726;-76
2022/03/24 07:53:37;;;;;;;4.93;3.37;;;8.00;99.90;;;;;;5072883;28;20215;-75
2022/03/24 07:56:03;;;;;;;9.10;6.13;;;8.20;99.90;;;;;;5053516;28;20169;-76
2022/03/24 07:58:29;;;;;;;11.03;5.53;;;8.40;99.90;;;;;;5053606;28;20547;-76
2022/03/24 08:00:57;;;;;;;13.30;6.63;;;8.50;99.90;;;;;;5061148;28;20204;-76
2022/03/24 08:03:23;;;;;;;5.73;4.80;;;8.70;99.90;;;;;;5057275;28;20181;-75
2022/03/24 08:05:49;;;;;;;8.43;3.87;;;8.90;99.90;;;;;;5052026;28;20169;-76
2022/03/24 08:08:16;;;;;;;17.55;8.68;;;9.10;99.90;;;;;;5068117;28;20400;-74
2022/03/24 08:10:44;;;;;;;16.47;8.33;;;9.40;99.90;;;;;;5072723;28;20219;-74
2022/03/24 08:13:11;;;;;;;6.60;6.00;;;9.50;99.90;;;;;;5057648;28;20181;-75
2022/03/24 08:15:37;;;;;;;5.63;4.80;;;9.70;99.90;;;;;;5063138;28;20231;-76
2022/03/24 08:18:08;;;;;;;13.80;5.33;;;9.90;99.90;;;;;;5065693;28;20183;-76
2022/03/24 08:20:35;;;;;;;3.70;3.43;;;10.10;99.90;;;;;;5051966;28;20193;-75
2022/03/24 08:23:02;;;;;;;24.53;6.80;;;10.20;99.90;;;;;;5053340;28;20165;-75
2022/03/24 08:25:28;;;;;;;14.47;5.43;;;10.40;99.90;;;;;;5054133;28;20188;-75
2022/03/24 08:27:53;;;;;;;14.30;6.20;;;10.60;99.90;;;;;;5066035;28;20180;-75
2022/03/24 08:30:19;;;;;;;7.80;6.13;;;10.70;99.90;;;;;;5064447;28;20283;-75
2022/03/24 08:32:45;;;;;;;9.37;8.47;;;10.90;99.90;;;;;;5073009;28;20253;-75
2022/03/24 08:35:11;;;;;;;7.70;4.63;;;11.10;99.90;;;;;;5072334;28;20264;-76
2022/03/24 08:37:37;;;;;;;5.43;5.03;;;11.20;99.90;;;;;;5073567;28;20173;-75
2022/03/24 08:40:04;;;;;;;13.97;8.37;;;11.40;99.90;;;;;;5093939;22;20223;-77
2022/03/24 08:42:29;;;;;;;9.47;4.83;;;11.50;99.90;;;;;;5080741;28;20217;-76
2022/03/24 08:44:55;;;;;;;5.60;5.10;;;11.60;99.90;;;;;;5075440;28;20555;-76
2022/03/24 08:47:20;;;;;;;8.27;5.20;;;11.70;99.90;;;;;;5083581;28;20230;-77
2022/03/24 08:49:46;;;;;;;10.57;6.63;;;11.90;99.90;;;;;;5087393;28;20186;-76
2022/03/24 08:52:12;;;;;;;10.33;5.63;;;12.10;99.90;;;;;;5092298;28;20207;-77
2022/03/24 08:54:38;;;;;;;12.43;7.00;;;12.40;99.90;;;;;;5092675;28;20205;-77
2022/03/24 08:57:04;;;;;;;5.57;5.07;;;12.60;99.90;;;;;;5092462;28;20653;-77
2022/03/24 08:59:29;;;;;;;5.87;5.10;;;12.80;99.90;;;;;;5092603;28;20203;-76
2022/03/24 09:01:57;;;;;;;12.27;7.47;;;12.90;99.90;;;;;;5091970;28;20278;-77
2022/03/24 09:04:26;;;;;;;10.83;9.30;;;13.00;99.90;;;;;;5092458;28;20198;-77
2022/03/24 09:06:53;;;;;;;8.43;7.57;;;13.20;99.90;;;;;;5077192;28;20179;-78
2022/03/24 09:09:22;;;;;;;17.30;7.53;;;13.40;99.90;;;;;;5092079;28;20171;-77
2022/03/24 09:11:51;;;;;;;13.57;8.30;;;13.50;99.90;;;;;;5087843;28;20235;-77
2022/03/24 09:14:17;;;;;;;11.73;6.97;;;13.70;99.90;;;;;;5090985;28;20186;-78
2022/03/24 09:16:44;;;;;;;9.83;8.83;;;13.60;99.90;;;;;;5090856;28;20176;-77
2022/03/24 09:19:10;;;;;;;10.20;7.03;;;13.80;99.90;;;;;;5090678;28;20172;-77
2022/03/24 09:21:36;;;;;;;24.77;10.03;;;13.90;99.90;;;;;;5091605;28;20576;-77
2022/03/24 09:24:01;;;;;;;17.07;8.77;;;14.20;99.90;;;;;;5090821;28;20176;-77
2022/03/24 09:26:27;;;;;;;22.33;9.43;;;14.60;99.90;;;;;;5092017;28;20258;-78
2022/03/24 09:28:52;;;;;;;8.70;6.23;;;14.70;99.90;;;;;;5090735;28;20191;-76
2022/03/24 09:31:19;;;;;;;19.57;7.47;;;14.80;99.90;;;;;;5091230;28;20575;-76
2022/03/24 09:33:45;;;;;;;9.43;6.50;;;14.90;99.90;;;;;;5091843;28;20174;-78
2022/03/24 09:36:11;;;;;;;14.70;6.57;;;15.20;99.90;;;;;;5091761;28;20183;-76
2022/03/24 09:38:37;;;;;;;7.23;6.23;;;15.20;99.90;;;;;;5091876;28;20187;-78
2022/03/24 09:41:05;;;;;;;17.20;8.20;;;15.10;99.90;;;;;;5091654;28;20624;-77
2022/03/24 09:43:34;;;;;;;11.73;7.40;;;14.90;99.90;;;;;;5091549;28;20205;-77
2022/03/24 09:46:01;;;;;;;17.10;11.20;;;14.60;99.90;;;;;;5091720;28;20192;-76
2022/03/24 09:48:27;;;;;;;19.00;10.77;;;14.70;99.90;;;;;;5091678;28;20191;-76
2022/03/24 09:50:53;;;;;;;16.47;9.73;;;14.70;99.90;;;;;;5091747;28;20638;-77
2022/03/24 09:53:19;;;;;;;7.13;5.07;;;14.90;99.90;;;;;;5091638;28;20586;-77
2022/03/24 09:55:49;;;;;;;19.10;8.37;;;15.00;99.90;;;;;;5091426;28;20174;-78
2022/03/24 09:58:15;;;;;;;20.33;8.33;;;15.30;99.90;;;;;;5091672;28;20262;-77
2022/03/24 10:00:41;;;;;;;7.70;6.97;;;15.60;99.90;;;;;;5091413;28;20623;-78
2022/03/24 10:03:09;;;;;;;11.40;7.73;;;15.70;99.90;;;;;;5089806;28;20181;-78
2022/03/24 10:05:35;;;;;;;11.20;9.17;;;15.90;99.90;;;;;;5083832;28;20619;-78
2022/03/24 10:08:06;;;;;;;8.57;7.77;;;16.10;99.90;;;;;;5085373;28;20285;-77
2022/03/24 10:10:37;;;;;;;12.77;7.30;;;16.30;99.90;;;;;;5089889;28;20206;-78
2022/03/24 10:13:02;;;;;;;15.03;8.33;;;16.50;99.90;;;;;;5088253;28;20164;-78
2022/03/24 10:15:29;;;;;;;10.30;8.20;;;16.30;99.70;;;;;;5091585;28;20225;-77
2022/03/24 10:17:57;;;;;;;8.47;6.07;;;16.30;99.30;;;;;;5090133;28;20183;-77
2022/03/24 10:20:26;;;;;;;11.53;8.87;;;16.20;99.40;;;;;;5091375;28;20194;-77
2022/03/24 10:22:54;;;;;;;11.93;9.30;;;16.30;99.50;;;;;;5089980;28;20551;-78
2022/03/24 10:25:28;;;;;;;11.50;6.97;;;16.60;98.10;;;;;;5090067;28;20180;-77
2022/03/24 10:28:12;;;;;;;14.23;9.30;;;16.70;96.50;;;;;;5091390;28;20733;-77
2022/03/24 10:30:55;;;;;;;8.43;7.03;;;16.50;95.30;;;;;;5091106;28;20219;-77
2022/03/24 10:33:35;;;;;;;8.87;4.90;;;16.50;94.40;;;;;;5082302;28;20298;-78
2022/03/24 10:36:23;;;;;;;9.10;6.47;;;16.70;94.40;;;;;;5088189;28;20185;-78
2022/03/24 10:38:51;;;;;;;14.13;6.70;;;16.90;94.30;;;;;;5091426;28;20168;-78
2022/03/24 10:41:27;;;;;;;12.80;6.60;;;17.20;93.00;;;;;;5091326;28;20257;-75
2022/03/24 10:43:55;;;;;;;17.33;10.00;;;17.60;93.70;;;;;;5081887;28;20207;-77
2022/03/24 10:46:24;;;;;;;16.57;8.63;;;17.70;91.80;;;;;;5095077;28;20188;-78
2022/03/24 10:48:50;;;;;;;10.50;5.97;;;17.90;91.30;;;;;;5080313;28;20188;-76
2022/03/24 10:51:26;;;;;;;12.20;7.10;;;18.70;90.00;;;;;;5094829;28;20214;-75
2022/03/24 10:54:02;;;;;;;12.07;8.67;;;18.70;88.50;;;;;;5091264;28;20222;-78
2022/03/24 10:56:30;;;;;;;8.67;7.77;;;18.00;86.10;;;;;;5086540;28;20167;-78
2022/03/24 10:59:03;;;;;;;15.63;6.43;;;18.30;88.10;;;;;;5094940;28;20397;-77
2022/03/24 11:01:31;;;;;;;26.37;10.23;;;18.80;86.40;;;;;;5093271;28;20199;-78
2022/03/24 11:03:57;;;;;;;17.10;8.23;;;19.30;84.00;;;;;;5095139;28;20233;-78
2022/03/24 11:06:23;;;;;;;9.40;7.43;;;19.10;79.10;;;;;;5079071;28;20176;-77
2022/03/24 11:08:54;;;;;;;15.50;10.17;;;19.60;78.40;;;;;;5081312;28;20271;-76
2022/03/24 11:11:20;;;;;;;17.03;7.87;;;19.80;78.20;;;;;;5092125;28;20687;-77
2022/03/24 11:13:53;;;;;;;6.97;5.47;;;20.40;76.60;;;;;;5094795;28;20205;-78
2022/03/24 11:16:25;;;;;;;12.50;7.47;;;21.90;71.70;;;;;;5080363;28;20721;-77
2022/03/24 11:18:53;;;;;;;13.87;7.00;;;22.00;72.50;;;;;;5088398;28;20176;-78
2022/03/24 11:21:40;;;;;;;11.97;6.30;;;21.80;67.40;;;;;;5094491;28;20230;-77
2022/03/24 11:24:06;;;;;;;18.83;7.03;;;20.60;68.20;;;;;;5081780;28;20469;-78
2022/03/24 11:26:34;;;;;;;7.87;6.63;;;20.50;69.00;;;;;;5094991;28;20194;-77
2022/03/24 11:28:59;;;;;;;11.97;6.67;;;21.10;68.50;;;;;;5094621;28;20176;-77
2022/03/24 11:31:31;;;;;;;11.93;6.73;;;22.10;65.90;;;;;;5094210;28;20218;-77
2022/03/24 11:34:00;;;;;;;10.13;7.10;;;21.80;64.20;;;;;;5094901;28;20168;-78
2022/03/24 11:36:28;;;;;;;11.17;5.83;;;23.50;61.00;;;;;;5093202;28;20179;-78
2022/03/24 11:39:00;;;;;;;9.03;7.03;;;23.10;59.20;;;;;;5081892;28;20200;-78
2022/03/24 11:41:44;;;;;;;7.13;4.50;;;22.80;59.60;;;;;;5094177;28;20249;-77
2022/03/24 11:44:36;;;;;;;14.20;9.47;;;23.30;57.40;;;;;;5080969;28;20201;-79
2022/03/24 11:47:12;;;;;;;9.97;5.70;;;22.00;57.00;;;;;;5092984;28;20192;-78
2022/03/24 11:49:38;;;;;;;10.80;7.43;;;22.20;57.50;;;;;;5084950;28;20176;-78
2022/03/24 11:52:03;;;;;;;21.07;8.93;;;23.30;56.80;;;;;;5086875;28;20219;-79
2022/03/24 11:54:34;;;;;;;13.60;5.50;;;24.00;56.00;;;;;;5083054;28;20179;-79
2022/03/24 11:57:21;;;;;;;8.93;5.60;;;24.00;54.70;;;;;;5080502;28;20172;-79
2022/03/24 11:59:47;;;;;;;19.73;6.50;;;26.00;51.70;;;;;;5081529;28;20217;-78
2022/03/24 12:02:17;;;;;;;5.30;4.60;;;28.60;49.40;;;;;;5092639;28;20203;-79
2022/03/24 12:04:57;;;;;;;18.13;7.27;;;26.70;48.00;;;;;;5081124;28;20168;-78
2022/03/24 12:07:24;;;;;;;9.60;6.57;;;25.90;47.40;;;;;;5083212;28;20209;-78
2022/03/24 12:10:20;;;;;;;9.33;6.20;;;26.00;48.50;;;;;;5092853;28;20184;-78
2022/03/24 12:13:19;;;;;;;7.57;4.67;;;26.20;48.60;;;;;;5090209;28;20224;-77
2022/03/24 12:16:05;;;;;;;9.90;3.10;;;27.20;46.20;;;;;;5076872;28;20615;-79
2022/03/24 12:18:41;;;;;;;8.70;4.43;;;25.50;46.40;;;;;;5094575;28;20233;-78
2022/03/24 12:21:07;;;;;;;8.53;4.23;;;26.00;46.30;;;;;;5092022;28;20203;-79
2022/03/24 12:24:05;;;;;;;6.33;4.30;;;27.60;43.90;;;;;;5082162;28;20221;-78
2022/03/24 12:26:37;;;;;;;7.03;6.07;;;26.30;45.00;;;;;;5080772;28;20188;-78
2022/03/24 12:29:12;;;;;;;22.47;5.50;;;26.60;44.80;;;;;;5093578;28;20614;-77
2022/03/24 12:32:05;;;;;;;14.80;5.57;;;26.80;43.70;;;;;;5094161;28;20203;-78
2022/03/24 12:34:40;;;;;;;14.33;6.40;;;27.40;43.50;;;;;;5094174;28;20164;-79
2022/03/24 12:37:25;;;;;;;14.87;5.47;;;26.80;43.20;;;;;;5093132;28;20179;-78
2022/03/24 12:40:10;;;;;;;10.37;5.93;;;26.90;44.10;;;;;;5093836;28;20570;-78
2022/03/24 12:42:45;;;;;;;15.70;7.07;;;27.60;44.20;;;;;;5093432;28;20187;-78
2022/03/24 12:45:18;;;;;;;6.90;3.83;;;29.80;41.80;;;;;;5093987;28;20185;-77
2022/03/24 12:47:50;;;;;;;9.40;3.63;;;28.70;39.00;;;;;;5068520;28;20168;-78
2022/03/24 12:50:15;;;;;;;8.93;4.10;;;26.90;39.10;;;;;;5093597;28;20200;-78
2022/03/24 12:52:55;;;;;;;4.27;3.10;;;27.10;39.60;;;;;;5091327;28;20689;-77
2022/03/24 12:55:32;;;;;;;7.47;3.57;;;27.30;39.60;;;;;;5092049;28;20175;-77
2022/03/24 12:58:19;;;;;;;17.00;6.90;;;27.30;38.80;;;;;;5081732;28;20184;-78